Capt. Carl Page — WDC6538 — position and weather

sailwx.info

Track history (hours):
 
Tides and Currents Weather Stations Pressure Air Temp Water Temp Dewpoint Dewpoint Depression Visibility Wind Speed Wind Dir Waves Ship Positions

Capt. Carl Page

Owner: American Commercial Lines LLC, Jeffersonville, IN. More information available from US FCC via Universal Licensing System and Coast Guard Vessel Documentation Center.

Last reported at 2017-Sep-09 10:57 UTC. Time now 2017-Sep-20 18:38 UTC.
Position N 32°58' W 091°10'.
Warning: this ship's position is 11 days out of date.

Length 55 m; draft 3.1 m.

Type: Towing. MMSI: 367057650.

Date/timePositionNaut miles runAvg speedWind from/ knotsBaromVisibWave heightAir tempDewpointWater temp
2017-Sep-09 10:57N 32°58' W 091°10'4 3.8
2017-Sep-09 09:59N 32°57' W 091°06'4 3.8
2017-Sep-09 09:03N 32°54' W 091°04'2 4.5
2017-Sep-09 08:41N 32°52' W 091°05'2 4.5
2017-Sep-09 08:21N 32°52' W 091°07'2 4.0
2017-Sep-09 07:51N 32°50' W 091°08'2 4.0
2017-Sep-09 07:28N 32°49' W 091°09'2 4.2
2017-Sep-09 07:00N 32°47' W 091°09'2 4.5
2017-Sep-09 06:30N 32°45' W 091°09'3 2.3
2017-Sep-09 05:06N 32°44' W 091°05'0 4.8
2017-Sep-09 05:00N 32°44' W 091°04'2 3.3
2017-Sep-09 04:24N 32°42' W 091°04'2 4.5
2017-Sep-09 03:57N 32°41' W 091°05'2 4.7
2017-Sep-09 03:30N 32°40' W 091°08'2 3.4
2017-Sep-09 03:00N 32°39' W 091°09'0 0.6
2017-Sep-09 02:28N 32°38' W 091°09'0 0.0
2017-Sep-09 02:00N 32°38' W 091°09'0 0.0
2017-Sep-09 01:30N 32°38' W 091°09'1 2.2
2017-Sep-09 01:00N 32°37' W 091°09'2 4.8
2017-Sep-09 00:30N 32°35' W 091°08'2 4.5
2017-Sep-09 00:00N 32°33' W 091°06'2 4.4
2017-Sep-08 23:30N 32°31' W 091°06'2 4.9
2017-Sep-08 23:00N 32°29' W 091°07'2 4.9
2017-Sep-08 22:30N 32°27' W 091°05'2 4.8
2017-Sep-08 22:00N 32°26' W 091°02'2 4.7
2017-Sep-08 21:30N 32°25' W 090°60'2 3.5
2017-Sep-08 21:00N 32°23' W 090°60'2 3.9
2017-Sep-08 20:30N 32°21' W 090°60'2 4.8
2017-Sep-08 20:00N 32°21' W 090°57'2 4.7
2017-Sep-08 19:30N 32°20' W 090°54'2 3.8
2017-Sep-08 19:00N 32°18' W 090°55'2 4.9
2017-Sep-08 18:30N 32°17' W 090°57'2 4.3
2017-Sep-08 18:00N 32°15' W 090°59'2 4.6
2017-Sep-08 17:30N 32°13' W 090°59'2 4.4
2017-Sep-08 17:00N 32°11' W 090°60'2 4.5
2017-Sep-08 16:30N 32°09' W 091°00'2 4.1
2017-Sep-08 16:00N 32°07' W 091°02'3 4.8
2017-Sep-08 15:23N 32°08' W 091°05'1 3.9
2017-Sep-08 15:00N 32°07' W 091°07'5 4.5
2017-Sep-08 14:00N 32°03' W 091°03'3 5.7
2017-Sep-08 13:30N 32°01' W 091°05'5 4.6
2017-Sep-08 12:23N 31°59' W 091°10'2 4.6
2017-Sep-08 12:00N 31°57' W 091°11'3 4.9
2017-Sep-08 11:26N 31°54' W 091°12'2 4.4
2017-Sep-08 11:00N 31°53' W 091°13'2 3.6
2017-Sep-08 10:30N 31°52' W 091°15'2 4.3
2017-Sep-08 09:59N 31°51' W 091°18'2 4.7
2017-Sep-08 09:30N 31°51' W 091°20'2 4.0
2017-Sep-08 09:00N 31°49' W 091°21'4 4.8
2017-Sep-08 08:15N 31°46' W 091°22'1 4.6
2017-Sep-08 07:58N 31°45' W 091°22'2 5.1
2017-Sep-08 07:30N 31°43' W 091°24'  
2017-Sep-04 17:53N 31°60' W 091°06'3 8.3
2017-Sep-04 17:30N 32°02' W 091°04'4 7.6
2017-Sep-04 16:55N 32°06' W 091°06'2 3.9
2017-Sep-04 16:30N 32°08' W 091°06'3 5.5
2017-Sep-04 16:00N 32°07' W 091°03'3 6.9
2017-Sep-04 15:30N 32°10' W 091°00'4 8.7
2017-Sep-04 15:00N 32°14' W 090°59'4 8.4
2017-Sep-04 14:30N 32°17' W 090°56'3 6.4
2017-Sep-04 14:00N 32°20' W 090°54'2 3.1
2017-Sep-04 13:30N 32°21' W 090°56'3 6.5
2017-Sep-04 13:00N 32°21' W 090°60'4 7.3
2017-Sep-04 12:30N 32°25' W 090°60'4 8.4
2017-Sep-04 12:00N 32°26' W 091°04'4 7.9
2017-Sep-04 11:30N 32°30' W 091°07'4 8.4
2017-Sep-04 11:00N 32°34' W 091°06'4 8.3
2017-Sep-04 10:30N 32°37' W 091°09'4 7.4
2017-Sep-04 10:00N 32°40' W 091°07'4 8.1
2017-Sep-04 09:29N 32°43' W 091°03'2 3.9
2017-Sep-04 08:58N 32°44' W 091°05'3 6.1
2017-Sep-04 08:30N 32°44' W 091°08'3 6.9
2017-Sep-04 08:00N 32°48' W 091°09'4 8.6
2017-Sep-04 07:29N 32°52' W 091°07'  
Track history (hours):
 
Tides and Currents Weather Stations Pressure Air Temp Water Temp Dewpoint Dewpoint Depression Visibility Wind Speed Wind Dir Waves Ship Positions

Capt. Carl Page

Owner: American Commercial Lines LLC, Jeffersonville, IN. More information available from US FCC via Universal Licensing System and Coast Guard Vessel Documentation Center.

Last reported at 2017-Sep-09 10:57 UTC. Time now 2017-Sep-20 18:38 UTC.
Position N 32°58' W 091°10'.
Warning: this ship's position is 11 days out of date.

Length 55 m; draft 3.1 m.

Type: Towing. MMSI: 367057650.

Date/timePositionNaut miles runAvg speedWind from/ knotsBaromVisibWave heightAir tempDewpointWater temp
2017-Sep-09 10:57N 32°58' W 091°10'4 3.8
2017-Sep-09 09:59N 32°57' W 091°06'4 3.8
2017-Sep-09 09:03N 32°54' W 091°04'2 4.5
2017-Sep-09 08:41N 32°52' W 091°05'2 4.5
2017-Sep-09 08:21N 32°52' W 091°07'2 4.0
2017-Sep-09 07:51N 32°50' W 091°08'2 4.0
2017-Sep-09 07:28N 32°49' W 091°09'2 4.2
2017-Sep-09 07:00N 32°47' W 091°09'2 4.5
2017-Sep-09 06:30N 32°45' W 091°09'3 2.3
2017-Sep-09 05:06N 32°44' W 091°05'0 4.8
2017-Sep-09 05:00N 32°44' W 091°04'2 3.3
2017-Sep-09 04:24N 32°42' W 091°04'2 4.5
2017-Sep-09 03:57N 32°41' W 091°05'2 4.7
2017-Sep-09 03:30N 32°40' W 091°08'2 3.4
2017-Sep-09 03:00N 32°39' W 091°09'0 0.6
2017-Sep-09 02:28N 32°38' W 091°09'0 0.0
2017-Sep-09 02:00N 32°38' W 091°09'0 0.0
2017-Sep-09 01:30N 32°38' W 091°09'1 2.2
2017-Sep-09 01:00N 32°37' W 091°09'2 4.8
2017-Sep-09 00:30N 32°35' W 091°08'2 4.5
2017-Sep-09 00:00N 32°33' W 091°06'2 4.4
2017-Sep-08 23:30N 32°31' W 091°06'2 4.9
2017-Sep-08 23:00N 32°29' W 091°07'2 4.9
2017-Sep-08 22:30N 32°27' W 091°05'2 4.8
2017-Sep-08 22:00N 32°26' W 091°02'2 4.7
2017-Sep-08 21:30N 32°25' W 090°60'2 3.5
2017-Sep-08 21:00N 32°23' W 090°60'2 3.9
2017-Sep-08 20:30N 32°21' W 090°60'2 4.8
2017-Sep-08 20:00N 32°21' W 090°57'2 4.7
2017-Sep-08 19:30N 32°20' W 090°54'2 3.8
2017-Sep-08 19:00N 32°18' W 090°55'2 4.9
2017-Sep-08 18:30N 32°17' W 090°57'2 4.3
2017-Sep-08 18:00N 32°15' W 090°59'2 4.6
2017-Sep-08 17:30N 32°13' W 090°59'2 4.4
2017-Sep-08 17:00N 32°11' W 090°60'2 4.5
2017-Sep-08 16:30N 32°09' W 091°00'2 4.1
2017-Sep-08 16:00N 32°07' W 091°02'3 4.8
2017-Sep-08 15:23N 32°08' W 091°05'1 3.9
2017-Sep-08 15:00N 32°07' W 091°07'5 4.5
2017-Sep-08 14:00N 32°03' W 091°03'3 5.7
2017-Sep-08 13:30N 32°01' W 091°05'5 4.6
2017-Sep-08 12:23N 31°59' W 091°10'2 4.6
2017-Sep-08 12:00N 31°57' W 091°11'3 4.9
2017-Sep-08 11:26N 31°54' W 091°12'2 4.4
2017-Sep-08 11:00N 31°53' W 091°13'2 3.6
2017-Sep-08 10:30N 31°52' W 091°15'2 4.3
2017-Sep-08 09:59N 31°51' W 091°18'2 4.7
2017-Sep-08 09:30N 31°51' W 091°20'2 4.0
2017-Sep-08 09:00N 31°49' W 091°21'4 4.8
2017-Sep-08 08:15N 31°46' W 091°22'1 4.6
2017-Sep-08 07:58N 31°45' W 091°22'2 5.1
2017-Sep-08 07:30N 31°43' W 091°24'  
2017-Sep-04 17:53N 31°60' W 091°06'3 8.3
2017-Sep-04 17:30N 32°02' W 091°04'4 7.6
2017-Sep-04 16:55N 32°06' W 091°06'2 3.9
2017-Sep-04 16:30N 32°08' W 091°06'3 5.5
2017-Sep-04 16:00N 32°07' W 091°03'3 6.9
2017-Sep-04 15:30N 32°10' W 091°00'4 8.7
2017-Sep-04 15:00N 32°14' W 090°59'4 8.4
2017-Sep-04 14:30N 32°17' W 090°56'3 6.4
2017-Sep-04 14:00N 32°20' W 090°54'2 3.1
2017-Sep-04 13:30N 32°21' W 090°56'3 6.5
2017-Sep-04 13:00N 32°21' W 090°60'4 7.3
2017-Sep-04 12:30N 32°25' W 090°60'4 8.4
2017-Sep-04 12:00N 32°26' W 091°04'4 7.9
2017-Sep-04 11:30N 32°30' W 091°07'4 8.4
2017-Sep-04 11:00N 32°34' W 091°06'4 8.3
2017-Sep-04 10:30N 32°37' W 091°09'4 7.4
2017-Sep-04 10:00N 32°40' W 091°07'4 8.1
2017-Sep-04 09:29N 32°43' W 091°03'2 3.9
2017-Sep-04 08:58N 32°44' W 091°05'3 6.1
2017-Sep-04 08:30N 32°44' W 091°08'3 6.9
2017-Sep-04 08:00N 32°48' W 091°09'4 8.6
2017-Sep-04 07:29N 32°52' W 091°07'  

Dump ship's entire track history